Aérodrome :
LOGIN :

S'inscrire | Disclaimer

   EN    FR    IT 

 










Légende :    VFR   VFR Marginal   IFR   IFR Intensif   IFR Très Intensif
Visi : 
Plafond : 
>= 8 km
>= 3000ft
5 à 8 km
1000 à 3000 ft
1500m à 5 km
500 à 1000 ft
800 à 1500m
200 à 500 ft
< 800m
< 200 ft
Symboles :   Orages  Brouillard  Fortes neiges  Fortes précipitations  Vent > 20 kt
SIGMETs :   Divers  Orages  Givrage  Turbulence  Onde Orograph.  Cendres Volcan.






- Altitude de l'aérodrome : 44 ft
- Code IATA : SOU


EGHI - Southampton

DERNIER METAR :
  • 211350Z 10007KT 060V170 9000 FEW014 BKN017 09/06 Q0999

METARs EXPIRÉS :
  • 211320Z 08006KT 030V120 9000 FEW014 BKN017 08/05 Q1000
  • 211250Z 08006KT 030V130 9000 FEW012 BKN017 08/05 Q1000
  • 211220Z 08007KT 360V120 9000 FEW009 BKN015 08/05 Q1001
  • 211150Z 08008KT 030V120 9000 FEW007 SCT015 08/05 Q1001
  • 211120Z 09006KT 040V140 9000 BKN007 07/05 Q1001

TAF TAF EGHI
Valide du 21 à 12h jusqu'au 21 à 21h UTC


211101Z 2112/2121 09008KT 9999 FEW008 BKN022
TEMPO 2112/2115 8000 BKN008
BECMG 2115/2118 BKN008
TEMPO 2115/2121 6000 RA
PROB30
TEMPO 2115/2121 4000 +RA
ATIS : +44 23 8062 7103



MET'MAP, la Météo Aéronautique d'un coup d'oeil ! - Copyright ORBIFLY Décembre 2007 - Disclaimer

ORBIFLY MET'MAP TEAM :

Programmation & Développement : Alexandra Zaïnal
Conception & Développement : Baudouin d'Aumeries
Co-Programmation & Développement : Marc-Olivier Méhu
Soutien technique & logistique : Manuel Goepfert

Contact : metmap@orbifly.com




SOURCES & CREDITS :

   NOAA